Terminal Aerodrome Forecast
Issued by NWS

Home | Current Version | Previous Version | Text Only | Print | Product List | Glossary Off
Versions: 1 2 3 4 5 6 7 8 9 10 11 12 13 14 15 16 17 18 19 20 21 22 23 24 25 26 27 28 29 30 31 32 33

993
FTUS43 KABR 160353 AAB
TAFATY
TAF AMD
KATY 160353Z 1604/1624 12007KT P6SM BKN011 BKN020
     FM161000 VRB03KT 4SM SHRA BR OVC010
     FM161300 00000KT 6SM BR OVC025
     FM161800 33005KT P6SM -SHRA OVC015=

USA.gov is the U.S. government's official web portal to all federal, state and local government web resources and services.